Selected Arizona METAR Reports


Metar stations are listed by distance from this station - near to far. The 'official' reporting station for the Greater Phoenix area is KPHX - Phoenix/Sky Harbor.

KDVT - Phoenix/Deer Valley, Arizona, USA
Distance from station: NW 4mi, 7km
Updated: Mon 25 Jan 2021 2353 MST
Overcast
Overcast
 Wind from SSE
Wind: SSE 7 mph , 11 km/h
Temperature: 41°F , 5°C
Wind Chill: 36°F , 2°C
Dew Point: 37°F , 3°C
Humidity: 87%
Barometer: 29.76 inHg , 1007.8 hPa
Clouds: Overcast
Visibility: 10 miles , 16 km
Cloud details: Few Clouds 3300 ft
Mostly cloudy 4400 ft
Overcast 5000 ft
2021/01/26 06:53 KDVT 260653Z AUTO 16006KT 10SM FEW033 BKN044 OVC050 05/03 A2976 RMK AO2 SLP072 T00500028 400940028
KSDL - Scottsdale, Arizona, USA
Distance from station: ESE 6mi, 9km
Updated: Mon 25 Jan 2021 2353 MST
Overcast
Overcast
 Wind from ESE
Wind: ESE 3 mph , 6 km/h
Temperature: 41°F , 5°C
Dew Point: 37°F , 3°C
Humidity: 87%
Barometer: 29.74 inHg , 1007.1 hPa
Clouds: Overcast
Visibility: 10 miles , 16 km
Cloud details: Few Clouds 4300 ft
Mostly cloudy 6000 ft
Overcast 7000 ft
2021/01/26 06:53 KSDL 260653Z AUTO 11003KT 10SM FEW043 BKN060 OVC070 05/03 A2974 RMK AO2 SLP065 T00500028 401060017
 
KPHX - Phoenix/Sky Harbor, Arizona, USA
Distance from station: S 15mi, 24km
Updated: Mon 25 Jan 2021 2351 MST
Mostly cloudy
Mostly cloudy
 Wind from S
Wind: S 6 mph , 9 km/h
Temperature: 45°F , 7°C
Wind Chill: 42°F , 6°C
Dew Point: 34°F , 1°C
Humidity: 66%
Barometer: 29.75 inHg , 1007.5 hPa
Clouds: Mostly cloudy
Visibility: 10 miles , 16 km
Cloud details: Mostly cloudy 5000 ft
Mostly cloudy 8000 ft
2021/01/26 06:51 KPHX 260651Z 18005KT 10SM BKN050 BKN080 07/01 A2975 RMK AO2 SLP071 T00720006 401220022 $
KGEU - Glendale, Arizona, USA
Distance from station: WSW 19mi, 30km
Updated: Mon 25 Jan 2021 1955 MST
NOT Current

 Wind from ENE
Wind: ENE 8 mph , 13 km/h
Temperature: 45°F , 7°C
Wind Chill: 41°F , 5°C
Dew Point: 39°F , 4°C
Humidity: 81%
Barometer: 29.73 inHg , 1006.8 hPa
Visibility: 10 miles , 16 km
2021/01/26 02:55 KGEU 260255Z 06007KT 10SM 07/04 A2973 RMK LAST
 
KFFZ - Mesa/Falcon Field, Arizona, USA
Distance from station: SE 21mi, 33km
Updated: Mon 25 Jan 2021 2354 MST
Heavy rain, Partly cloudy
Heavy rain, Partly cloudy
 Wind from S
Wind: S 12 mph , 19 km/h
Temperature: 43°F , 6°C
Wind Chill: 37°F , 3°C
Dew Point: 36°F , 2°C
Humidity: 76%
Barometer: 29.77 inHg , 1008.1 hPa
Summary: Heavy rain
Clouds: Partly cloudy
Visibility: 10 miles , 16 km
Cloud details: Few Clouds 4300 ft
Few Clouds 5000 ft
Partly cloudy 11000 ft
2021/01/26 06:54 KFFZ 260654Z AUTO 17010KT 10SM +RA FEW043 FEW050 SCT110 06/02 A2977 RMK AO2 SLP071 P0000 T00610017 401110017
KLUF - Luke AFB/Glendale, Arizona, USA
Distance from station: WSW 23mi, 36km
Updated: Mon 25 Jan 2021 2258 MST
NOT Current
Clear
Clear
 Wind from S
Wind: S 12 mph , 19 km/h
Temperature: 43°F , 6°C
Wind Chill: 37°F , 3°C
Dew Point: 37°F , 3°C
Humidity: 81%
Barometer: 29.71 inHg , 1006.1 hPa
Clouds: Clear
Visibility: 10 miles , 16 km
2021/01/26 05:58 KLUF 260558Z AUTO 19010KT 10SM CLR 06/03 A2971 RMK AO2 SLP062 60002 T00620026 10096 20062 53005 $
 
KGYR - Goodyear Municipal, Arizona, USA
Distance from station: SW 26mi, 42km
Updated: Mon 25 Jan 2021 1947 MST
NOT Current
Overcast
Overcast
 Wind from SW
Wind: SW 5 mph , 7 km/h
Temperature: 46°F , 8°C
Wind Chill: 44°F , 7°C
Dew Point: 37°F , 3°C
Humidity: 71%
Barometer: 29.73 inHg , 1006.8 hPa
Clouds: Overcast
Visibility: 10 miles , 16 km
Cloud details: Partly cloudy 7000 ft
Overcast 10000 ft
2021/01/26 02:47 KGYR 260247Z 22004KT 10SM SCT070 OVC100 08/03 A2973
KIWA - Chandler/Mesa, Arizona, USA
Distance from station: SE 32mi, 51km
Updated: Tue 26 Jan 2021 0035 MST
Clear
Clear
 Wind from S
Wind: S 9 mph , 15 km/h
Temperature: 41°F , 5°C
Wind Chill: 35°F , 2°C
Dew Point: 34°F , 1°C
Humidity: 76%
Barometer: 29.80 inHg , 1009.1 hPa
Clouds: Clear
Visibility: 10 miles , 16 km
2021/01/26 07:35 KIWA 260735Z AUTO 19008KT 10SM CLR 05/01 A2980 RMK AO2 T00520014
 
KBXK - Buckeye, Arizona, USA
Distance from station: WSW 42mi, 68km
Updated: Tue 26 Jan 2021 0035 MST
Overcast
Overcast
 Wind from SSW
Wind: SSW 8 mph , 13 km/h
Temperature: 43°F , 6°C
Wind Chill: 38°F , 3°C
Dew Point: 34°F , 1°C
Humidity: 71%
Barometer: 29.78 inHg , 1008.5 hPa
Clouds: Overcast
Visibility: 10 miles , 16 km
Cloud details: Few Clouds 5000 ft
Mostly cloudy 5500 ft
Overcast 7500 ft
2021/01/26 07:35 KBXK 260735Z AUTO 21007KT 10SM FEW050 BKN055 OVC075 06/01 A2978 RMK A01
KCGZ - Casa Grande, Arizona, USA
Distance from station: SSE 50mi, 81km
Updated: Mon 25 Jan 2021 2356 MST
Clear
Clear
 
Temperature: 41°F , 5°C
Dew Point: 34°F , 1°C
Humidity: 76%
Clouds: Clear
Visibility: 10 miles , 16 km
2021/01/26 06:56 KCGZ 260656Z AUTO 10SM CLR 05/01 RMK AO2 SLPNO T00500011 401220044 $
 
KPAN - Payson, Arizona, USA
Distance from station: NE 57mi, 91km
Updated: Tue 26 Jan 2021 0035 MST
Light snow, Overcast
Light snow, Overcast
 Wind from SW
Wind: SW 10 mph , 17 km/h
Temperature: 25°F , -4°C
Wind Chill: 15°F , -9°C
Dew Point: 23°F , -5°C
Humidity: 93%
Barometer: 29.67 inHg , 1004.7 hPa
Summary: Light Snow
Clouds: Overcast
Visibility: 2 miles , 3 km
Cloud details: Overcast 300 ft
2021/01/26 07:35 KPAN 260735Z AUTO 22009KT 2SM -SN OVC003 M04/M05 A2967 RMK AO2
KGBN - Gila Bend (aaf), Arizona, USA
Distance from station: SW 68mi, 109km
Updated: Wed 04 Dec 2019 0855 MST
NOT Current
Mostly cloudy
Mostly cloudy
 Wind from calm
Wind: Calm
Temperature: 55°F , 13°C
Dew Point: 54°F , 12°C
Humidity: 94%
Barometer: 30.02 inHg , 1016.6 hPa
Clouds: Mostly cloudy
Visibility: 10 miles , 16 km
Cloud details: Mostly cloudy 10000 ft
Mostly cloudy 14000 ft
2019/12/04 15:55 KGBN 041555Z 00000KT 10SM BKN100 BKN140 13/12 A3002 RMK AO2A SLP162
 
KPRC - Prescott, Arizona, USA
Distance from station: NNW 73mi, 118km
Updated: Tue 26 Jan 2021 0021 MST
Heavy snow, Freezing, Fog, Overcast
Heavy snow, Freezing, Fog, Overcast
 Wind from SW
Wind: SW 17 mph , 28 km/h, Gust: 24 mph , 39 km/h
Temperature: 25°F , -4°C
Wind Chill: 12°F , -11°C
Dew Point: 23°F , -5°C
Humidity: 93%
Barometer: 29.61 inHg , 1002.7 hPa
Summary: Heavy snow, Freezing, Fog
Clouds: Overcast
Visibility: 1/4 mile , 0.4 km
Cloud details: Overcast 600 ft
2021/01/26 07:21 KPRC 260721Z AUTO 22015G21KT 1/4SM +SN FZFG VV006 M04/M05 A2961 RMK AO2 P0001 T10441050
KSEZ - Sedona, Arizona, USA
Distance from station: N 84mi, 135km
Updated: Tue 26 Jan 2021 0035 MST
Light snow, Overcast
Light snow, Overcast
 Wind from S
Wind: S 8 mph , 13 km/h
Temperature: 28°F , -2°C
Wind Chill: 20°F , -7°C
Dew Point: 28°F , -2°C
Humidity: 100%
Barometer: 29.63 inHg , 1003.4 hPa
Summary: Light Snow
Clouds: Overcast
Visibility: 10 miles , 16 km
Cloud details: Partly cloudy 200 ft
Mostly cloudy 800 ft
Overcast 1100 ft
2021/01/26 07:35 KSEZ 260735Z AUTO 17007KT 10SM -SN SCT002 BKN008 OVC011 M02/M02 A2963 RMK AO2
 
KFLG - Flagstaff, Arizona, USA
Distance from station: N 105mi, 168km
Updated: Tue 26 Jan 2021 0033 MST
Light snow, Mist, Overcast
Light snow, Mist, Overcast
 Wind from SSW
Wind: SSW 9 mph , 15 km/h
Temperature: 19°F , -7°C
Wind Chill: 8°F , -13°C
Dew Point: 16°F , -9°C
Humidity: 86%
Barometer: 29.53 inHg , 1000 hPa
Summary: Light snow, Mist
Clouds: Overcast
Visibility: 3 miles , 5 km
Cloud details: Partly cloudy 1000 ft
Mostly cloudy 1400 ft
Overcast 2100 ft
2021/01/26 07:33 KFLG 260733Z AUTO 21008KT 3SM -SN BR SCT010 BKN014 OVC021 M07/M09 A2953 RMK AO2 P0001 T10721089 TSNO
KRYN - Tucson/Ryan Field, Arizona, USA
Distance from station: SSE 114mi, 184km
Updated: Mon 25 Jan 2021 1945 MST
NOT Current
Mostly cloudy
Mostly cloudy
 Wind from W
Wind: W 20 mph , 31 km/h, Gust: 25 mph , 41 km/h
Temperature: 45°F , 7°C
Wind Chill: 37°F , 3°C
Dew Point: 36°F , 2°C
Humidity: 71%
Barometer: 29.79 inHg , 1008.8 hPa
Clouds: Mostly cloudy
Visibility: 10 miles , 16 km
Cloud details: Few Clouds 4900 ft
Mostly cloudy 6500 ft
2021/01/26 02:45 KRYN 260245Z 27017G22KT 10SM FEW049 BKN065 07/02 A2979 RMK LAST
 
KCMR - Williams Clark, Arizona, USA
Distance from station: N 115mi, 185km
Updated: Tue 26 Jan 2021 0035 MST
Light snow, Overcast
Light snow, Overcast
 Wind from SSW
Wind: SSW 15 mph , 24 km/h, Gust: 24 mph , 39 km/h
Temperature: 19°F , -7°C
Wind Chill: 5°F , -15°C
Dew Point: 16°F , -9°C
Humidity: 86%
Barometer: 29.53 inHg , 1000 hPa
Summary: Light Snow
Clouds: Overcast
Visibility: 4 miles , 6 km
Cloud details: Few Clouds 400 ft
Mostly cloudy 1100 ft
Overcast 3000 ft
2021/01/26 07:35 KCMR 260735Z AUTO 21013G21KT 4SM -SN FEW004 BKN011 OVC030 M07/M09 A2953 RMK AO2
KINW - Winslow, Arizona, USA
Distance from station: NE 121mi, 194km
Updated: Tue 26 Jan 2021 0034 MST
Light snow, Mist, Overcast
Light snow, Mist, Overcast
 Wind from SE
Wind: SE 6 mph , 9 km/h
Temperature: 27°F , -3°C
Wind Chill: 20°F , -7°C
Dew Point: 25°F , -4°C
Humidity: 93%
Barometer: 29.62 inHg , 1003 hPa
Summary: Light snow, Mist
Clouds: Overcast
Visibility: 2 miles , 3 km
Cloud details: Mostly cloudy 1400 ft
Overcast 3400 ft
2021/01/26 07:34 KINW 260734Z AUTO 14005KT 2SM -SN BR BKN014 OVC034 M03/M04 A2962 RMK AO2 P0003 T10281044 TSNO $
 
KTUS - Tucson, Arizona, USA
Distance from station: SSE 121mi, 195km
Updated: Mon 25 Jan 2021 2353 MST
Few Clouds
Few Clouds
 Wind from SSE
Wind: SSE 8 mph , 13 km/h
Temperature: 39°F , 4°C
Wind Chill: 33°F , 1°C
Dew Point: 34°F , 1°C
Humidity: 81%
Barometer: 29.84 inHg , 1010.5 hPa
Clouds: Few Clouds
Visibility: 10 miles , 16 km
Cloud details: Few Clouds 5500 ft
2021/01/26 06:53 KTUS 260653Z 16007KT 10SM FEW055 04/01 A2984 RMK AO2 SLP095 T00390011 401280022
KDMA - Davis AFB/Tucson, Arizona, USA
Distance from station: SE 122mi, 196km
Updated: Mon 25 Jan 2021 2258 MST
NOT Current
Overcast
Overcast
 Wind from SW
Wind: SW 8 mph , 13 km/h
Temperature: 37°F , 3°C
Wind Chill: 31°F , -1°C
Dew Point: 32°F , 0°C
Humidity: 81%
Barometer: 29.80 inHg , 1009.1 hPa
Clouds: Overcast
Visibility: 10 miles , 16 km
Cloud details: Overcast 7500 ft
2021/01/26 05:58 KDMA 260558Z AUTO 22007KT 10SM OVC075 03/00 A2980 RMK AO2 RAE13 SLP085 P0001 60007 T00300002 10060 20016 52008 FZRANO $
 
KSOW - Show Low Municipal, Arizona, USA
Distance from station: ENE 123mi, 198km
Updated: Tue 26 Jan 2021 0035 MST
Light snow, Overcast
Light snow, Overcast
 Wind from SW
Wind: SW 18 mph , 30 km/h, Gust: 25 mph , 41 km/h
Temperature: 23°F , -5°C
Wind Chill: 9°F , -13°C
Dew Point: 21°F , -6°C
Humidity: 93%
Barometer: 29.62 inHg , 1003 hPa
Summary: Light Snow
Clouds: Overcast
Visibility: 2 1/2 miles , 4 km
Cloud details: Mostly cloudy 100 ft
Mostly cloudy 500 ft
Overcast 1300 ft
2021/01/26 07:35 KSOW 260735Z AUTO 22016G22KT 2 1/2SM -SN BKN001 BKN005 OVC013 M05/M06 A2962 RMK AO2
KSAD - Safford, Arizona, USA
Distance from station: ESE 148mi, 238km
Updated: Tue 26 Jan 2021 0015 MST
Overcast
Overcast
 Wind from NNW
Wind: NNW 16 mph , 26 km/h
Temperature: 36°F , 2°C
Wind Chill: 26°F , -3°C
Dew Point: 32°F , 0°C
Humidity: 87%
Barometer: 29.76 inHg , 1007.8 hPa
Clouds: Overcast
Visibility: 9 miles , 14 km
Cloud details: Overcast 3500 ft
2021/01/26 07:15 KSAD 260715Z AUTO 33014KT 9SM OVC035 02/00 A2976 RMK AO2 SNB03E13 P0000 T00220000